International TAF

Brunei, China, Hong Kong, Malaysia, Philippines, Taiwan

The availability of aerodrome forecasts from overseas locations is dependent on the regular international exchange of data. Some locations may at times be absent. If this problem persists, please advise webav@bom.gov.au

 back to top

ZSPD 19/06/2019 UTC

TAF AMD ZSPD 191819Z 1918/2018 12004MPS 6000 BKN011 OVC033
TX25/2006Z
TN21/1921Z TEMPO 2012/2018 2500 SHRA BKN005 SCT030CB OVC033

WIDD 19/06/2019 UTC

TAF WIDD 191700Z 1918/2018 20004KT 9000 SCT014

WAMM 19/06/2019 UTC

TAF WAMM 191700Z 1918/2024 11002KT 9000 FEW021
BECMG 1923/2001 02005KT SCT022
PROB40 TEMPO 2004/2008 5000 -RA SCT018

WBSB 19/06/2019 UTC

TAF WBSB 191700Z 1918/2100 21002KT 9999 SCT014
BKN150 TEMPO 1918/1920 2000 RA
BECMG 2003/2005 34010KT FEW016 FEW017CB

WBKK 19/06/2019 UTC

TAF AMD WBKK 191841Z 1918/2018 11007KT 9999 FEW014
TEMPO 1918/1922 VRB07G20KT 5000 TSRA FEW013 FEW016CB
BECMG 1923/2001 23010KT

WBGG 19/06/2019 UTC

TAF WBGG 191700Z 1918/2018 VRB03KT 9999 SCT020
TEMPO 2007/2010 26007KT 9999 FEW015CB

VHHH 19/06/2019 UTC

TAF VHHH 191700Z 1918/2024 19010KT 9999 FEW020 TX33/2006Z
TN28/1922Z TN28/2022Z TEMPO 1918/1924 VRB05KT TEMPO 1919/2001
4000 SHRA TEMPO 2003/2010 25010KT

VMMC 19/06/2019 UTC

TAF VMMC 191702Z 1918/2024 19008KT 9999 FEW015 SCT030

ZGSZ 19/06/2019 UTC

TAF ZGSZ 191506Z 1918/2018 17004MPS 8000 FEW030 TX32/2006Z
TN27/1922Z

RCTP 19/06/2019 UTC

TAF RCTP 191700Z 1918/2024 23010KT 9999 FEW015
TEMPO 1920/1924 20005KT 5000 RA FEW010 BKN020 BKN030
TEMPO 2002/2008 25020G30KT FEW015 BKN032
TEMPO 2012/2018 19008KT FEW010 BKN018 BKN030

RCKH 19/06/2019 UTC

TAF RCKH 191700Z 1918/2024 30005KT 9999 FEW015
TEMPO 1918/1924 36005KT
TEMPO 2002/2008 28012KT FEW015 BKN032
TEMPO 2012/2018 03005KT

ZGGG 19/06/2019 UTC

TAF ZGGG 191501Z 1918/2018 16003MPS 8000 SCT040 TX34/2007Z
TN27/1922Z

ZBAA 19/06/2019 UTC

TAF ZBAA 191520Z 1918/2018 14004MPS 6000 NSC TX35/2007Z TN22/1921Z

ZSSS 19/06/2019 UTC

TAF ZSSS 191512Z 1918/2018 12004MPS 6000 BKN020 TX26/2006Z
TN21/1921Z
TEMPO 2010/2016 SHRA BKN010 FEW030CB OVC040

ZBTJ 19/06/2019 UTC

TAF ZBTJ 191500Z 1918/2018 11003MPS 3000 BR NSC TX33/2007Z
TN21/1921Z
TEMPO 1918/1922 2500 -SHRA BR

ZBYN 19/06/2019 UTC

TAF ZBYN 191516Z 1918/2018 06004MPS 6000 NSC TX30/2007Z TN19/1921Z
TEMPO 1919/1923 2800 -SHRA BR FEW030CB SCT040

ZSHC 19/06/2019 UTC

TAF ZSHC 191504Z 1918/2018 09003MPS 3000 -SHRA BR SCT007 BKN020
TX26/2006Z TN22/1921Z TEMPO 1918/1924 2000 -SHRA BR

ZSOF 19/06/2019 UTC

TAF ZSOF 191502Z 191818 12004MPS 6000 SCT020 TX23/18Z TN21/21Z
BECMG 2021 2400 -RA BR BKN007 OVC030 TEMPO 2124 TSRA FEW030CB
TEMPO 0309 1400 TSRA FEW030CB

ZWWW 19/06/2019 UTC

TAF ZWWW 191502Z 1918/2018 18004MPS CAVOK TX32/2009Z TN23/1923Z
BECMG 2002/2003 36004MPS BECMG 2013/2014 18004MPS

ZYTL 19/06/2019 UTC

TAF ZYTL 191511Z 1918/2018 12004MPS CAVOK TX28/2006Z TN18/1921Z
TEMPO 1920/1924 2800 BR SCT033

RPLL 19/06/2019 UTC

TAF RPLL 191700Z 1918/2024 12006KT 9999 FEW025 SCT100
TX35/2006Z TN28/1921Z
TEMPO 1918/1924 -SHRA FEW022CB SCT023 BKN090
TEMPO 2006/2012 15008KT FEW023CB FEW025 SCT100

RPVM 19/06/2019 UTC

TAF RPVM 191700Z 1918/2024 06005KT 9999 FEW020 SCT300
TEMPO 1918/1924 VRB03KT TEMPO 2000/2006 FEW018CB FEW020 SCT100

RPMZ 19/06/2019 UTC

TAF RPMZ 191700Z 1918/2018 26005KT 9999 FEW017 SCT300
TEMPO 1921/2003 VRB02KT -SHRA SCT016CB BKN090 BKN300

Australian International

The availability of aerodrome forecasts from overseas locations is dependent on the regular international exchange of data. Some locations may at times be absent. If this problem persists, please advise webav@bom.gov.au

 back to top

YMML 19/06/2019 UTC

TAF YMML 191714Z 1918/2024
27007KT 9999 -SHRA BKN040
FM200200 23010KT 9999 -SHRA BKN030
FM201200 29008KT 9999 -SHRA SCT030 BKN040
INTER 2003/2012 5000 SHRA BKN015
RMK
T 06 06 08 09 Q 1025 1026 1026 1025

YSSY 19/06/2019 UTC

TAF YSSY 191715Z 1918/2024
29008KT 9999 FEW030
FM192300 20010KT 9999 SCT035
FM201000 29008KT 9999 -SHRA SCT030
FM201800 28010KT 9999 FEW030
FM202300 21015KT 9999 FEW040
RMK
T 07 07 13 15 Q 1023 1024 1025 1022

YBBN 19/06/2019 UTC

TAF YBBN 191714Z 1918/2024
20009KT 9999 FEW050
FM200000 17008KT 9999 SCT045
FM200300 12010KT 9999 SCT040
FM200600 15008KT 9999 -SHRA SCT035 SCT045
FM201200 20006KT 9999 -SHRA SCT030 SCT040
INTER 2009/2021 4000 SHRA BKN025
RMK
T 13 13 17 20 Q 1019 1021 1022 1020

YSCB 19/06/2019 UTC

TAF AMD YSCB 192106Z 1921/2018
VRB03KT CAVOK
FM200200 34008KT CAVOK
FM200800 VRB03KT CAVOK
BECMG 2014/2016 VRB03KT 9999 SCT020
PROB30 2016/2018 2000 BR SCT001
RMK
T M03 04 09 08 Q 1024 1025 1022 1021

YBCS 19/06/2019 UTC

TAF YBCS 191700Z 1918/2018
14012KT 9999 FEW028
RMK
T 18 18 22 25 Q 1016 1017 1018 1016

YBAS 19/06/2019 UTC

TAF YBAS 191706Z 1918/2018
31005KT CAVOK
FM200000 13010KT CAVOK
FM201600 30005KT CAVOK
RMK
T 02 01 09 14 Q 1024 1025 1027 1025

YBMA 19/06/2019 UTC

TAF YBMA 191602Z 1918/2006
16010KT CAVOK
RMK
T 10 09 16 21 Q 1019 1021 1022 1020

YPAD 19/06/2019 UTC

TAF YPAD 191706Z 1918/2024
04005KT 9999 SCT035
FM200100 35008KT 9999 SCT030
FM200500 03010KT 9999 -SHRA SCT015 BKN025
FM201100 05007KT 9999 -SHRA SCT025
INTER 2006/2010 5000 SHRA BKN015
RMK
T 07 06 09 12 Q 1025 1025 1027 1026

YPDN 19/06/2019 UTC

TAF YPDN 191705Z 1918/2024
13008KT 9999 FU NSC
FM200000 12014KT CAVOK
FM200800 01008KT CAVOK
FM201300 14008KT CAVOK
RMK FM202000 MOD TURB BLW 3000FT
T 19 18 22 28 Q 1014 1015 1016 1014

YPTN 19/06/2019 UTC

TAF YPTN 191705Z 1918/2018
14006KT CAVOK
FM200000 12013KT CAVOK
FM201000 14006KT CAVOK
RMK
FM191800 MOD TURB BLW 5000FT TL200100
FM201600 MOD TURB BLW 5000FT
T 11 10 20 26 Q 1016 1017 1019 1017

YPPH 19/06/2019 UTC

TAF YPPH 191705Z 1918/2024
07010KT CAVOK
RMK
T 08 07 08 14 Q 1021 1020 1021 1020

YPLM 19/06/2019 UTC

TAF YPLM 191719Z 1918/2018
25007KT CAVOK
FM200000 10005KT CAVOK
FM200400 05007KT CAVOK
FM200800 30007KT CAVOK
FM201200 25005KT CAVOK
RMK
T 12 12 16 23 Q 1015 1014 1015 1016

YCAR 19/06/2019 UTC

TAF AMD YCAR 192055Z 1922/2011
05007KT CAVOK
FM200500 25010KT CAVOK
RMK
T 10 16 24 23 Q 1014 1015 1015 1013

YPCC 19/06/2019 UTC

TAF YPCC 191718Z 1918/2018
09013KT 9999 SCT020
FM200300 09014KT 9999 FEW025
FM201100 09012KT 9999 SCT020
RMK
T 27 27 27 28 Q 1012 1011 1011 1013

YPPD 19/06/2019 UTC

TAF YPPD 191719Z 1918/2018
VRB03KT CAVOK
FM200000 12010KT CAVOK
FM200300 02010KT CAVOK
FM200600 36008KT 9999 -SHRA SCT030 BKN050
FM201400 10005KT 9999 FEW025
INTER 2006/2012 5000 SHRA BKN015
RMK
T 17 15 20 26 Q 1015 1014 1016 1016

YBTL 19/06/2019 UTC

TAF YBTL 191659Z 1918/2018
VRB03KT CAVOK
FM192300 14007KT CAVOK
FM200200 06012KT CAVOK
FM200900 13007KT CAVOK
FM201400 19004KT CAVOK
RMK
T 14 14 21 24 Q 1017 1018 1019 1017

YMHB 19/06/2019 UTC

TAF YMHB 191712Z 1918/2018
31007KT 9999 SCT035
FM200300 22012KT 9999 -SHRA SCT020 BKN030
FM200600 23010KT 9999 -SHRA BKN020
INTER 2006/2018 4000 SHRA BKN015
RMK
T 04 05 07 10 Q 1022 1023 1023 1022

YPXM 19/06/2019 UTC

TAF AMD YPXM 191719Z 1917/2018
11012KT 9999 SCT015
RMK
T 24 24 23 25 Q 1014 1013 1013 1015

New Zealand

The availability of aerodrome forecasts from overseas locations is dependent on the regular international exchange of data. Some locations may at times be absent. If this problem persists, please advise webav@bom.gov.au

 back to top

NZAA 19/06/2019 UTC

TAF NZAA 191706Z 1918/2018 09008KT 9999 BKN050
BECMG 1922/2000 04015G25KT
TEMPO 2006/2010 4000 RA BKN012
TEMPO 2010/2014 5000 RA BKN006
FM201400 02012KT 9999 -RA BKN012

NZWN 19/06/2019 UTC

TAF NZWN 191706Z 1918/2018 02012KT CAVOK
FM200800 02015G25KT 9999 FEW025 SCT050
TEMPO 2014/2018 5000 RA BKN012

NZCH 19/06/2019 UTC

TAF NZCH 191706Z 1918/2018 VRB02KT CAVOK
FM200000 04010KT 9999 BKN050
TEMPO 2011/2016 6000 RA

YLHI 19/06/2019 UTC

TAF YLHI 191710Z 1918/2018
20011KT 9999 -SHRA SCT035 SCT050
FM200000 17010KT 9999 NSW FEW025 SCT035
FM200800 16006KT 9999 -SHRA SCT025 BKN035
BECMG 2013/2015 10006KT 9999 -SHRA SCT025 SCT035
RMK FM191800 MOD TURB BLW 5000FT TL192400
T 18 18 19 20 Q 1017 1019 1021 1019

YSNF 19/06/2019 UTC

TAF YSNF 191712Z 1918/2018
35008KT 9999 -SHRA FEW012 SCT025
FM200000 30010KT 9999 -SHRA SCT015 BKN025
FM200600 23010KT 9999 -SHRA FEW015 SCT030
FM201400 19008KT 9999 -SHRA SCT015 BKN025
INTER 1918/2018 4000 SHRA BKN013
RMK
T 18 19 20 20 Q 1016 1017 1017 1016

Indonesia, Malaysia, Myanmar, Singapore, Thailand, Vietnam

The availability of aerodrome forecasts from overseas locations is dependent on the regular international exchange of data. Some locations may at times be absent. If this problem persists, please advise webav@bom.gov.au

 back to top

WADA

TAF not available.

WAAA 19/06/2019 UTC

TAF WAAA 191700Z 1918/2100 13003KT 8000 FEW019
BECMG 1922/2000 9999
BECMG 2002/2004 30008KT
BECMG 2010/2012 13004KT 8000

WIII 19/06/2019 UTC

TAF WIII 191700Z 1918/2100 20004KT 4000 HZ FEW020
BECMG 2001/2003 10010KT 8000 NSW
BECMG 2012/2014 VRB03KT 5000

WIHH 19/06/2019 UTC

TAF WIHH 191700Z 1918/2018 00000KT 4000 HZ FEW022 BECMG 2001/2003 09008KT 7000

WIMM 19/06/2019 UTC

TAF WIMM 191700Z 1918/2018 VRB06KT 7000 SCT017
TEMPO 2007/2011 3500 -TSRA FEW016CB BKN017
BECMG 2012/2014 4000 HZ SCT017

WIPP 19/06/2019 UTC

TAF WIPP 191700Z 1918/2018 12005KT 9999 SCT010

WIKD

TAF not available.

WARR 19/06/2019 UTC

TAF WARR 191700Z 1918/2018 26005KT 6000 FEW020 BECMG 1918/1920 3000 HZ BECMG 2000/2002
10010KT 9999 NSW BECMG 2015/2017 27005KT 7000

WADD 19/06/2019 UTC

TAF WADD 191700Z 1918/2018 VRB05KT 9999 SCT017
BECMG 1922/2000 12012KT

WRRA

TAF not available.

WALL 19/06/2019 UTC

TAF WALL 191700Z 1918/2024 23006KT 9999 SCT018 PROB40 TEMPO 2000/2003 7000 -RA FEW017CB
SCT018

WSSS 19/06/2019 UTC

TAF WSSS 191700Z 1918/2100 16008KT 9999 FEW015
SCT020 TEMPO 2002/2006 3000 TSRA FEW012CB BKN015

WSAP 19/06/2019 UTC

TAF WSAP 191700Z 1918/2100 16008KT 9999 FEW015
SCT020 TEMPO 2002/2006 3000 TSRA FEW012CB BKN015

WMKK 19/06/2019 UTC

TAF WMKK 191700Z 1918/2100 14005KT 9999 FEW030
BECMG 2001/2002 FEW018
PROB30 TEMPO 2005/2009 4000 TSRA FEW017CB
SCT018 BECMG 2011/2013 VRB02KT

WMSA 19/06/2019 UTC

TAF WMSA 191700Z 1918/2018 15005KT 9999 FEW026
BECMG 2000/2002 14005KT FEW018
PROB30 TEMPO 2005/2009 18007KT 3000 TSRA FEW017CB
SCT018 BECMG 2011/2012 FEW025

WMKP 19/06/2019 UTC

TAF WMKP 191700Z 1918/2018 06005KT 8000 FEW025
TEMPO 1920/2000 5000 TSRA FEW010 FEW017CB
BECMG 2000/2002 VRB03KT 7000 FEW020
BECMG 2003/2005 22007KT

WMKJ 19/06/2019 UTC

TAF WMKJ 191700Z 1918/2018 VRB02KT 3000 BR FEW010
BECMG 1922/2000 9999 NSW
TEMPO 2003/2007 19007KT 4000 TSRA FEW017CB
SCT018 BECMG 2010/2012 VRB02KT 8000 FEW022
BECMG 2015/2017 4000 BR FEW010

WMKD 19/06/2019 UTC

TAF WMKD 191700Z 1918/2018 VRB03KT 9999 FEW024
TEMPO 2010/2014 6000 -TSRA FEW017CB SCT019

WMKB 19/06/2019 UTC

TAF WMKB 191700Z 1918/2018 07005KT 8000 FEW024
BECMG 2006/2008 22010KT FEW020

VTBD 19/06/2019 UTC

TAF VTBD 191700Z 1918/2024 20005KT 9999 FEW020
TEMPO 2008/2013 24010G20KT 5000 TSRA FEW018CB SCT030 BKN080

VTBS 19/06/2019 UTC

TAF VTBS 191700Z 1918/2024 22008KT 9999 FEW020
TEMPO 2008/2013 24010G20KT 5000 TSRA FEW018CB SCT030 BKN080

VTBU 19/06/2019 UTC

TAF VTBU 191700Z 1918/2018 33004KT 9999 FEW020
BECMG 2001/2003 22008KT

VTCC 19/06/2019 UTC

TAF VTCC 191700Z 1918/2024 20005KT 9999 FEW035
TEMPO 2006/2012 VRB15G25KT 3000 TSRA FEW020CB BKN035

VTSP 19/06/2019 UTC

TAF VTSP 191700Z 1918/2024 00000KT 9999 FEW020
TEMPO 1920/1924 26015G30KT 3000 TSRA FEW018CB SCT020 BKN100
BECMG 2000/2002 11006KT BECMG 2006/2008 25007KT
TEMPO 2008/2012 26015G30KT 3000 TSRA FEW018CB SCT020 BKN100

VTSS 19/06/2019 UTC

TAF VTSS 191700Z 1918/2018 00000KT 9999 FEW020 SCT100
TEMPO 2008/2014 24010G20KT 5000 TSRA FEW016CB SCT018 BKN100

VVTS 19/06/2019 UTC

TAF VVTS 191700Z 1918/2024 26006KT 9999 SCT017 SCT040
BECMG 1920/1921 VRB02KT BECMG 2001/2002 31010KT
TEMPO 2008/2012 5000 TSRA BKN015 FEW017CB

VDPP 19/06/2019 UTC

TAF VDPP 191700Z 1918/2012 28006KT 9999 SCT017

VVNB 19/06/2019 UTC

TAF VVNB 191700Z 1918/2018 09007KT 9999 FEW025

VYYY 19/06/2019 UTC

TAF VYYY 191700Z 1918/2018 18006KT 7000 BKN015 FEW018CB BKN100
TEMPO 1918/1922 20006G16KT 4000 RA

South America

The availability of aerodrome forecasts from overseas locations is dependent on the regular international exchange of data. Some locations may at times be absent. If this problem persists, please advise webav@bom.gov.au

 back to top

SAEZ 19/06/2019 UTC

TAF SAEZ 191700Z 1918/2018 27015G25KT CAVOK TX15/2018Z TN05/2011Z
BECMG 1921/1923 25010KT
BECMG 2002/2004 22005KT PROB30 2007/2012 VRB03KT 5000 BR NSC
BECMG 2013/2015 02005KT CAVOK

SAVC 19/06/2019 UTC

TAF SAVC 191700Z 1918/2018 27015G25KT CAVOK TX14/1918Z TN06/2009Z
BECMG 1920/1923 30020G35KT
BECMG 2002/2005 29010KT
BECMG 2015/2018 05010KT 9999 FEW030

SCIE 19/06/2019 UTC

TAF SCIE 191624Z 1918/2018 15010KT CAVOK TX16/1918Z TN04/2011Z BECMG
2000/2002 15004KT BECMG 2012/2014 35004KT BECMG 2016/2018
8000 SCT012

SACO 19/06/2019 UTC

TAF SACO 191700Z 1918/2018 05015KT CAVOK TX21/2018Z TN02/2010Z
BECMG 2002/2004 32005KT
BECMG 2013/2015 05020KT

SCIP 19/06/2019 UTC

TAF COR SCIP 191611Z 1918/2018 20013KT 9999 SCT025
TX20/1920Z TN14/2010Z
TEMPO 1919/1922 26018KT 7000 -SHRA BKN020
BECMG 2002/2004 20008KT
TEMPO 2009/2015 26013KT 7000 -SHRA BKN020

SAZM 19/06/2019 UTC

TAF SAZM 191700Z 1918/2018 25015G25KT 8000 -DZ BKN010 BKN020
TX13/2018Z TN05/2010Z
BECMG 2020/2023 23015KT 8000 BKN015 BKN025
BECMG 2005/2008 27005KT 6000 SCT020
BECMG 2012/2015 32005KT CAVOK

SAME 19/06/2019 UTC

TAF SAME 191700Z 1918/2018 VRB03KT CAVOK TX18/1920Z TN01/2011Z

SUMU 19/06/2019 UTC

TAF SUMU 191830Z 1918/2018 26020KT 9999 FEW020 TX15/2018Z TN07/2010Z
TEMPO 1918/2000 28020G30KT
BECMG 2003/2005 24010KT

SAZN 19/06/2019 UTC

TAF SAZN 191700Z 1918/2018 25010KT CAVOK
TX13/2018Z TN04/2011Z BECMG 1922/2001 VRB03KT
BECMG 2007/2010 09005KT 9999 FEW035 BECMG 2014/2017
05010KT

SCTE 19/06/2019 UTC

TAF SCTE 191636Z 1918/2018 02007KT 9999 FEW035 BKN060 TX12/1919Z
TN02/2012Z
BECMG 1918/1919 SCT060
BECMG 1920/1922 07004KT CAVOK
BECMG 2001/2003 03004KT FEW030
BECMG 2004/2006 VRB03KT 4000 BR SCT007
TEMPO 2007/2013 33003KT 0500 BCFG OVC002
BECMG 2014/2016 36010KT 9999 NSW FEW018 SCT200

SCCI 19/06/2019 UTC

TAF SCCI 191645Z 1918/2018 27020KT 9999 FEW035 TX06/1918Z
TN00/2012Z
TEMPO 1918/1923 25025G35KT 7000 -SHRA -SHRASN BKN020
BECMG 2003/2005 24010KT
BECMG 2008/2010 29010KT

SAWG 19/06/2019 UTC

TAF SAWG 191700Z 1918/2018 29010G25KT CAVOK TX07/1918Z TNM00/2012Z
BECMG 1921/1924 9999 SCT040
BECMG 2002/2005 CAVOK
BECMG 2013/2018 36010KT 9999 SCT040

SAAR 19/06/2019 UTC

TAF SAAR 191700Z 1918/2018 23010KT CAVOK TX16/1918Z TN05/2010Z
BECMG 1922/2001 VRB03KT PROB40
TEMPO 2006/2011 5000 BR NSC
BECMG 2014/2017 04005KT 9999 FEW035

SAZS 19/06/2019 UTC

TAF SAZS 191700Z 1918/2018 30015KT 9999 FEW020 TX09/1918Z
TN00/2011Z
BECMG 1921/1924 VRB03KT FEW030
BECMG 2003/2006 15005KT 9999 FEW0015
BECMG 2014/2017 05005KT CAVOK

SCEL 19/06/2019 UTC

TAF SCEL 191624Z 1918/2018 18008KT 8000 SCT180 BKN200 TX22/1918Z
TN01/2011Z BECMG 1923/2001 16004KT TEMPO 2009/2012 VRB02KT
4000 BR FEW150 BKN220 BECMG 2015/2017 18008KT 8000 NSC

SAWH 19/06/2019 UTC

TAF SAWH 191700Z 1918/2018 30015KT 9999 SCT040 TX06/1918Z
TNM00/1921Z PROB40
TEMPO 1918/1924 7000 RASN FEW020 SCT040
BECMG 2006/2010 29020G30KT CAVOK

Guam, Japan, Korea

The availability of aerodrome forecasts from overseas locations is dependent on the regular international exchange of data. Some locations may at times be absent. If this problem persists, please advise webav@bom.gov.au

 back to top

PGUA 19/06/2019 UTC

TAF PGUA 191800Z 1918/2024 08012KT 9999 SCT015 SCT100 QNH2980INS
TEMPO 2001/2008 08015G20KT 8000 -SHRA BKN015 TX31/2001Z
TN25/1919Z

PGUM 19/06/2019 UTC

TAF PGUM 191739Z 1918/2024 09011KT P6SM VCSH SCT020 SCT035

PGSN 19/06/2019 UTC

TAF PGSN 191739Z 1918/2018 10011KT P6SM VCSH FEW020 SCT035

PTRO 19/06/2019 UTC

TAF PTRO 191739Z 1918/2018 VRB06KT P6SM VCSH SCT016 BKN120

RJOO

19/06/2019 UTC

TAF RJOO 191710Z 1918/2100 32005KT 9999 FEW025 SCT040 BECMG
2002/2004 22008KT BECMG 2009/2012 32005KT

RJOB 19/06/2019 UTC

TAF RJOB 191709Z 1918/2100 03004KT 9999 FEW030 BECMG 2001/2003
21007KT BECMG 2009/2012 03005KT

RJGG 19/06/2019 UTC

TAF RJGG 191706Z 1918/2100 32006KT 9999 FEW020 SCT045 BECMG
2000/2002 20008KT BECMG 2015/2018 03004KT TEMPO 2018/2021
4000 BR

RJCC 19/06/2019 UTC

TAF RJCC 191706Z 1918/2100 17005KT 9999 FEW020 BKN040 BECMG
2001/2003 17015KT BECMG 2009/2012 17005KT TEMPO 2009/2015
FEW002 BKN005 TEMPO 2015/2100 0700 DZ VV001

RJSS 19/06/2019 UTC

TAF RJSS 191705Z 1918/2100 34004KT 8000 FEW005 BKN015 TEMPO
1918/2000 FEW003 BKN005 BKN008 BECMG 2000/2002 12008KT
TEMPO 2012/2021 3000 BR FEW005 BKN008 BKN015

RJFK 19/06/2019 UTC

TAF RJFK 191709Z 1918/2100 36004KT 7000 FEW010 TEMPO 1919/1923 1500
BR FEW002 BKN005 BECMG 2000/2002 18007KT BECMG 2009/2012
34004KT

RJAA 19/06/2019 UTC

TAF RJAA 191705Z 1918/2100 03008KT 9999 FEW015 BKN020 TEMPO
1918/1922 4000 BR FEW002 BKN003 BECMG 2004/2006 10010KT
BECMG 2012/2015 3000 BR FEW002 BKN003 TEMPO 2018/2021 1200
BR BCFG BECMG 2021/2100 16008KT 9999 NSW FEW006 BKN020

RJBB 19/06/2019 UTC

TAF RJBB 191707Z 1918/2100 07004KT 9999 FEW020 BECMG 2001/2003
25006KT BECMG 2015/2018 06004KT

RJTT 19/06/2019 UTC

TAF RJTT 191705Z 1918/2100 02006KT 9000 FEW010 BKN020 BECMG
2002/2004 11008KT BECMG 2006/2009 18012KT

RJFF 19/06/2019 UTC

TAF AMD RJFF 191955Z 1919/2100 05005KT 9000 FEW010 SCT020 BKN030
TEMPO 1919/1922 FEW005 BKN008 BKN010 BECMG 2001/2003
33011KT BECMG 2012/2015 15005KT

RJFT 19/06/2019 UTC

TAF RJFT 191705Z 1918/2100 06003KT 9999 FEW030 BECMG 2000/2002
27005KT BECMG 2012/2015 06003KT

RJFU 19/06/2019 UTC

TAF RJFU 191707Z 1918/2100 30006KT 9000 FEW030 BECMG 2009/2012
14004KT

ROAH 19/06/2019 UTC

TAF ROAH 191708Z 1918/2100 25012KT 9999 FEW008 BKN015 TEMPO
1918/1922 4000 TSRA FEW005 BKN008 FEW020CB TEMPO 1922/2003
2000 +TSRA FEW005 BKN008 SCT020CB BECMG 2001/2003 29011KT
TEMPO 2003/2006 4000 SHRA FEW005 BKN008 FEW020CB BECMG
2009/2012 24008KT

RKSS 19/06/2019 UTC

TAF RKSS 191700Z 1918/2024 29005KT 6000 SCT010 BKN030
TN19/1921Z TX27/2006Z TN19/2021Z
BECMG 1920/1921 21005KT
BECMG 1923/1924 27008KT FEW010 SCT030
BECMG 2013/2014 21005KT FEW010 BKN025
BECMG 2015/2016 4200 BR
BECMG 2022/2023 6000 NSW

RKSI 19/06/2019 UTC

TAF AMD RKSI 192115Z 1921/2024 22006KT 6000 FEW010 BKN025
TN18/1921Z TX24/2005Z TN18/2021Z
TEMPO 1921/1923 4200 BR
BECMG 2002/2003 28008KT FEW010 SCT030
BECMG 2016/2017 21006KT FEW010 BKN025
TEMPO 2023/2024 FEW010 SCT030

RKSM 19/06/2019 UTC

TAF RKSM 191700Z 1918/2024 30006KT 4800 BR BKN020 BECMG 2002/2003
30006KT 9000 BR BKN030 BECMG 2005/2006 30006KT 9999 NSW
SCT030 BECMG 2013/2014 30006KT 4800 BR BKN020 TN19/1921Z
TX28/2006Z

RKPK 19/06/2019 UTC

TAF RKPK 191700Z 1918/2024 33006KT 4800 BR SCT030 SCT200
TN18/1921Z TX29/2006Z
BECMG 1920/1921 3200
BECMG 1923/1924 4800
BECMG 2002/2003 18008KT
BECMG 2003/2004 9000 NSW
BECMG 2012/2013 33006KT

RKPC 19/06/2019 UTC

TAF RKPC 191700Z 1918/2024 19005KT CAVOK
TN18/1920Z TX24/2005Z TN20/2018Z
BECMG 1922/1923 35005KT
BECMG 2012/2013 02005KT 4800 BR NSC
BECMG 2019/2020 08005KT
BECMG 2023/2024 6000 NSW

Indonesia, Pakistan, Singapore, India, Sri Lanka, United Arab Emirates

The availability of aerodrome forecasts from overseas locations is dependent on the regular international exchange of data. Some locations may at times be absent. If this problem persists, please advise webav@bom.gov.au

 back to top

WIII 19/06/2019 UTC

TAF WIII 191700Z 1918/2100 20004KT 4000 HZ FEW020
BECMG 2001/2003 10010KT 8000 NSW
BECMG 2012/2014 VRB03KT 5000

WSSS 19/06/2019 UTC

TAF WSSS 191700Z 1918/2100 16008KT 9999 FEW015
SCT020 TEMPO 2002/2006 3000 TSRA FEW012CB BKN015

VCBI 19/06/2019 UTC

TAF VCBI 191700Z 1918/2024 24010KT 9999 SCT017 TX31/2007Z
TN27/2000Z PROB30
TEMPO 1923/2001 7000 -SHRA SCT016 FEW020CB PROB30
TEMPO 2012/2015 6000 -TSRA/SHRA SCT016 FEW020CB

VECC 19/06/2019 UTC

TAF VECC 191100Z 1912/2018 16008KT 3500 HZ SCT018 SCT100
TEMPO 1913/1917 31015G25KT 1500 TSRA SCT015 FEW025CB OVC090
BECMG 1918/1920 2800 HZ
BECMG 2003/2005 3500 HZ
BECMG 2016/2018 2800 HZ

VOMM 19/06/2019 UTC

TAF VOMM 191700Z 1918/2024 18010KT 6000 FEW020 SCT100
BECMG 1921/1922 27010KT
BECMG 2003/2004 27010G20KT
BECMG 2009/2010 12010KT
TEMPO 2012/2018 SCT015 FEW025TCU/CB BKN100
BECMG 2015/2016 18010KT

VOTV 19/06/2019 UTC

TAF VOTV 191700Z 1918/2024 33005KT 3000 BR RA SCT015 FEW025CB
OVC080 TEMPO 1922/2002 2500 BR TSRA BECMG 2004/2006 32005KT 5000 DZ
HZ FEW015 FEW025CB BKN080 TEMPO 2008/2012 32010G20KT 3000 TSRA RA
SCT010 FEW025CB OVC080 BECMG 2016/2018 33005KT 4000 BR RA SCT010
SCT020 BKN080

VABB 19/06/2019 UTC

TAF VABB 191700Z 1918/2024 21006KT 3000 HZ SCT018 SCT025
TEMPO 1918/2003 1500 SHRA SCT012 FEW025TCU BKN080
BECMG 2004/2006 25007G17KT
TEMPO 2009/2018 2000 -TSRA SHRA SCT012 FEW030CB BKN090
BECMG 2020/2022 22008KT

VAAH 19/06/2019 UTC

TAF VAAH 191700Z 1918/2024 13007KT 4000 HZ FEW020
BECMG 1901/1903 23006KT 2500 HZ
BECMG 2005/2007 5000 FU FEW020 SCT025
BECMG 2013/2015 24007KT 4000 FU HZ SCT020
TEMPO 2015/2019 19010KT 3500 HZ -RA SCT015 SCT020 FEW030CB

VILK 19/06/2019 UTC

TAF VILK 191700Z 1918/2024 VRB02KT 3000 BR SCT020 SCT025 BKN100
TEMPO 1922/2002 1500 -TSRA FEW030CB OVC090
BECMG 2006/2008 27008KT 4000 HZ SCT020 SCT025 BKN100
BECMG 2016/2018 VRB02KT 3000 HZ SCT020 SCT100

VANP 19/06/2019 UTC

TAF VANP 191700Z 1918/2024 32005KT 3000 HZ FEW020 SCT100
BECMG 2004/2006 30005KT 5000 HZ SCT025 SCT100
BECMG 2012/2014 34005KT 3000 HZ SCT020 SCT100
TEMPO 2010/2014 32010G20KT 2000 -TSRA SCT020 FEW030CB BKN090

VRMM 19/06/2019 UTC

TAF VRMM 191700Z 1918/2024 28014KT 9000 -RA SCT017TCU BKN110 TEMPO
1918/1924 25015G37KT 3000 SHRA SCT015 FEW016CB OVC090

VOHS 19/06/2019 UTC

TAF VOHS 191700Z 1918/2024 25006KT 6000 FEW020 SCT100 BECMG
2006/2008 28012KT 6000 SCT020 SCT025 BECMG 2016/2018 25008KT
FEW020 SCT100

OPKC 19/06/2019 UTC

TAF OPKC 192130Z 2000/2106 23010G20KT 6000 SCT030 TEMPO 2000/2004
26008KT 4000 FU BKN020 BECMG
2016/2018 25008KT 5000 HZ SCT020 TEMPO 2101/2105 26008KT 4000 FU
BKN020

OBBI 19/06/2019 UTC

TAF OBBI 191700Z 1918/2100 33016KT CAVOK BECMG 2004/2006 33018G28KT
BECMG 2016/2018 33015KT

OMAA 19/06/2019 UTC

TAF OMAA 191700Z 1918/2100 27009KT 8000 NSC
BECMG 2004/2006 33016KT
BECMG 2017/2019 26006KT

OMDB 19/06/2019 UTC

TAF OMDB 191656Z 1918/2100 18007KT 8000 FEW020
PROB40 1922/2005 4000 HZ
PROB30 TEMPO 2001/2003 0200 FG VV///
BECMG 2006/2008 08010KT
BECMG 2009/2011 32012KT
BECMG 2016/2018 06005KT

OOMS 19/06/2019 UTC

TAF OOMS 191700Z 1918/2024 VRB02KT 8000 NSC PROB30 TEMPO 1923/2002
4000 BR BKN020 BECMG 2006/2008 03012KT BECMG 2016/2018
VRB02KT

OMSJ 19/06/2019 UTC

TAF OMSJ 191656Z 1918/2100 18007KT 8000 FEW020
PROB40 1920/2005 3000 HZ
PROB30 2000/2003 0100 FG VV///
BECMG 2006/2008 08010KT
BECMG 2009/2011 33013KT
BECMG 2016/2018 08005KT

Malawi, Mauritius, South Africa, Zambia, Zimbabwe

The availability of aerodrome forecasts from overseas locations is dependent on the regular international exchange of data. Some locations may at times be absent. If this problem persists, please advise webav@bom.gov.au

 back to top

FIMP 19/06/2019 UTC

TAF FIMP 191700Z 1918/2100 12015G25KT 9999 SCT017 TEMPO 1920/2012
7000 -SHRA FEW010 SCT015 BKN050 BECMG 2004/2006 13020G35KT

FMEE 19/06/2019 UTC

TAF FMEE 191700Z 1918/2024 12018KT 9999 FEW026 SCT045 TEMPO 1918/2004
4500 SHRA TEMPO 2006/2018 11022G34KT TEMPO 2012/2024 4500 SHRA

FLKK 19/06/2019 UTC

TAF FLKK 191600Z 1918/2024 09005KT CAVOK BECMG 2004/2007 10005KT
9999 FEW015 BECMG 2008/2010 09010KT SCT030

FWKI 19/06/2019 UTC

TAF FWKI 191420Z 1918/2019 16008KT 9999 FEW020
FM191900 17005KT CAVOK
PROB30 TEMPO 2001/2006 VRB02KT 5000 BCFG NSC
BECMG 2008/2010 18007KT 9999 FEW025

FAOR 19/06/2019 UTC

TAF FAOR 192000Z 1918/2024 VRB03KT CAVOK
TX20/2012Z TN07/2005Z
BECMG 2013/2015 03008KT
FM201800 33010KT CAVOK

FVHA

TAF not available.

FAWK 19/06/2019 UTC

TAF FAWK 191800Z 1919/2006 NIL

FABL 19/06/2019 UTC

TAF FABL 191600Z 1918/2018 VRB03KT CAVOK TX21/2012Z TN00/2004Z

FALE 19/06/2019 UTC

TAF FALE 191600Z 1918/2024 34003KT CAVOK
TX23/2012Z TN09/2004Z
PROB30 TEMPO 1921/2002 2000 BR NSC
BECMG 2009/2011 03016KT

YPCC 19/06/2019 UTC

TAF YPCC 191718Z 1918/2018
09013KT 9999 SCT020
FM200300 09014KT 9999 FEW025
FM201100 09012KT 9999 SCT020
RMK
T 27 27 27 28 Q 1012 1011 1011 1013

United States (includes Hawaii) and Mexican emergency/alternates

The availability of aerodrome forecasts from overseas locations is dependent on the regular international exchange of data. Some locations may at times be absent. If this problem persists, please advise webav@bom.gov.au

 back to top

PHNL 19/06/2019 UTC

TAF PHNL 192055Z 1921/2024 06014G20KT P6SM FEW025 SCT045
FM200600 06009KT P6SM FEW025 SCT045
FM202000 07013G19KT P6SM FEW025 SCT045

PHLI 19/06/2019 UTC

TAF PHLI 191738Z 1918/2018 06011KT P6SM SCT020 SCT040
TEMPO 1918/1919 BKN020

PHOG 19/06/2019 UTC

TAF PHOG 191738Z 1918/2018 06011KT P6SM FEW035 SCT050
FM192000 04017G25KT P6SM FEW025 SCT050
FM200600 05008KT P6SM FEW030 SCT060
AMD LTD TO VIS AND WIND 2009/2016

PHTO 19/06/2019 UTC

TAF PHTO 191738Z 1918/2018 24004KT P6SM VCSH SCT040 BKN060
FM192000 04011KT P6SM SCT025 BKN040
FM200600 24006KT P6SM VCSH SCT020 BKN040

PKMJ 19/06/2019 UTC

TAF PKMJ 191739Z 1918/2018 08016KT P6SM VCSH SCT014 BKN050 BKN120
TEMPO 1918/1922 4SM -SHRA BKN015
FM192300 09016KT P6SM VCSH SCT014 SCT050 BKN120

KLAX 19/06/2019 UTC

TAF KLAX 192044Z 1921/2024 27012KT P6SM FEW010 SCT027
FM200400 26008KT P6SM OVC019
FM201100 VRB03KT P6SM OVC010
FM201600 23005KT P6SM OVC018
FM202000 26010KT P6SM BKN025

KONT 19/06/2019 UTC

TAF KONT 191736Z 1918/2024 VRB04KT 3SM HZ SCT012
FM192000 25012KT P6SM FEW100
FM200600 25005KT P6SM SCT015
FM200900 VRB04KT P6SM OVC010
FM201800 VRB03KT 5SM HZ SCT012
FM202000 25012KT P6SM SKC

KPMD 19/06/2019 UTC

TAF AMD KPMD 192116Z 1921/2018 20015G23KT P6SM SKC
FM192200 23015G25KT P6SM SKC
FM200300 24014KT P6SM SKC
FM200700 22012KT P6SM SKC

KSAN 19/06/2019 UTC

TAF KSAN 192027Z 1920/2024 27008KT P6SM SCT016
TEMPO 2000/2002 BKN016
FM200200 VRB04KT P6SM OVC015
FM202000 25008KT P6SM SCT018

KLAS 19/06/2019 UTC

TAF AMD KLAS 191804Z 1918/2024 09005KT P6SM FEW140
FM192000 18010KT P6SM FEW140
FM192100 19010G17KT P6SM FEW140
FM201800 20022G30KT P6SM SKC

KOAK 19/06/2019 UTC

TAF KOAK 191739Z 1918/2024 31007KT P6SM OVC013
FM191830 31007KT P6SM BKN013
FM191900 31007KT P6SM FEW010
FM192100 31014KT P6SM SKC
FM200400 29011KT P6SM BKN010
FM200800 26012KT P6SM OVC008
FM201800 29013KT P6SM FEW010

KSFO 19/06/2019 UTC

TAF KSFO 192108Z 1921/2024 03009KT P6SM SKC
FM192200 30015G20KT P6SM SKC
FM200400 27008KT P6SM SCT012
FM200800 24007KT P6SM OVC010
FM201800 29014KT P6SM FEW010

KSMF 19/06/2019 UTC

TAF KSMF 191739Z 1918/2018 17009KT P6SM SKC
FM200100 17014G21KT P6SM SKC
FM201400 18008KT P6SM SKC

KSCK 19/06/2019 UTC

TAF KSCK 191739Z 1918/2018 31010KT P6SM SKC

KFAT 19/06/2019 UTC

TAF KFAT 191720Z 1918/2018 31009KT P6SM SKC
TEMPO 2004/2008 31012G18KT P6SM SKC

KJFK 19/06/2019 UTC

TAF AMD KJFK 191938Z 1920/2024 10007KT 6SM -SHRA BR OVC007
FM192200 11006KT 4SM -SHRA BR OVC007
FM200200 11005KT 6SM BR OVC006
FM200900 10004KT 2SM -DZ BR OVC004
FM201200 13006KT 6SM HZ OVC008
FM201400 16009KT P6SM BKN015
FM201800 17011KT P6SM VCTS SCT015 BKN035CB

KPHL 19/06/2019 UTC

TAF KPHL 192014Z 1920/2024 17008KT P6SM VCSH SCT025 BKN045
TEMPO 1922/2002 4SM SHRA OVC025
FM200400 VRB03KT 6SM BR VCSH OVC025
FM200600 16005KT 5SM BR BKN012
FM201000 VRB03KT 5SM BR OVC008
FM201500 21005KT P6SM BKN015
FM201700 21008KT P6SM BKN045

KPIT 19/06/2019 UTC

TAF KPIT 192029Z 1920/2024 25005KT P6SM VCTS BKN060CB
TEMPO 1921/1923 3SM TSRA BKN035CB
FM200000 VRB03KT P6SM VCSH BKN060
FM200600 20004KT 5SM -SHRA BR OVC035
FM200900 21007KT 6SM -SHRA BR BKN015
FM201600 24010G18KT P6SM -SHRA BKN025

KDEN 19/06/2019 UTC

TAF AMD KDEN 192059Z 1921/2024 33008KT P6SM SCT090 SCT220
FM200100 27007KT P6SM FEW110 SCT220
FM200400 21009KT P6SM SCT220
FM201200 18005KT P6SM SCT120 BKN220
FM201700 12010KT P6SM FEW220
FM202000 14014G24KT P6SM SCT080 BKN200 PROB30 2021/2024 P6SM
-TSRA BKN050CB

KMCI 19/06/2019 UTC

TAF KMCI 191726Z 1918/2018 35006KT P6SM VCSH OVC020
FM192100 34008KT P6SM VCSH OVC035
FM200100 30005KT P6SM SCT100
FM200900 21003KT 6SM BR SCT035
FM201300 19007KT P6SM FEW060

KDFW 19/06/2019 UTC

TAF KDFW 192052Z 1921/2024 19013KT P6SM SCT040 BKN250
FM192300 21016KT P6SM VCTS SCT050CB BKN120
TEMPO 1923/2003 27025G35KT +TSRA BKN040CB
FM200400 18009KT P6SM SCT120 BKN250
FM200800 14008KT P6SM SCT025 BKN035
FM201300 14008KT P6SM BKN025
FM201500 18015KT P6SM SCT250

KAUS 19/06/2019 UTC

TAF KAUS 191720Z 1918/2024 20014KT P6SM FEW250
FM200100 16012KT P6SM SCT250
FM200700 16010KT P6SM BKN025
FM201400 18012KT P6SM SCT050

KELP 19/06/2019 UTC

TAF KELP 191720Z 1918/2018 26014G23KT P6SM FEW120 FEW250
FM200200 25010KT P6SM SKC

KIAH 19/06/2019 UTC

TAF KIAH 192040Z 1921/2024 18012KT P6SM SCT045
FM200300 17010KT P6SM SCT025 BKN250
FM200900 18007KT P6SM BKN020
FM201400 20014KT P6SM SCT020 BKN250
FM201900 19014KT P6SM FEW035 SCT250

KSAT 19/06/2019 UTC

TAF KSAT 191720Z 1918/2024 17012KT P6SM FEW050 FEW250
FM200700 17010KT P6SM BKN025
FM201400 18012KT P6SM SCT050

KTUS 19/06/2019 UTC

TAF KTUS 191726Z 1918/2018 24005KT P6SM SKC
FM192300 28010G16KT P6SM SKC
FM200200 28006KT P6SM SKC
FM200700 14005KT P6SM SKC

MMCU 19/06/2019 UTC

TAF MMCU 191725Z 1918/2018 33006KT P6SM SCT030 BKN200
FM200400 33005KT P6SM BKN200

MMHO 19/06/2019 UTC

TAF MMHO 191703Z 1918/2018 25012KT P6SM SKC
FM200400 00000KT P6SM SKC

MMLT 19/06/2019 UTC

TAF MMLT 191640Z 1918/2018 04015KT P6SM BKN250
FM200300 09010KT P6SM BKN250

MMSD 19/06/2019 UTC

TAF MMSD 191640Z 1918/2018 14015KT P6SM SKC
FM200300 28005KT P6SM SCT250

Papua New Guinea, Southwest Pacific

The availability of aerodrome forecasts from overseas locations is dependent on the regular international exchange of data. Some locations may at times be absent. If this problem persists, please advise webav@bom.gov.au

 back to top

NWWW 19/06/2019 UTC

TAF NWWW 191700Z 1918/2018 VRB02KT 9999 FEW060 BECMG 1923/2001 15012KT

NFFN 19/06/2019 UTC

TAF NFFN 191706Z 1918/2018
10006KT 9999 FEW030
BECMG 1921/1923 30010KT
BECMG 2005/2007 10006KT

NFNA 19/06/2019 UTC

TAF NFNA 191708Z 1918/2018
12008KT 9999 -SHRA BKN018 BKN045
PROB40 TEMPO 1918/1920 5000 SHRA BKN015
PROB30 TEMPO 1920/1924 5000 SHRA BKN015
PROB30 TEMPO 2014/2018 5000 SHRA BKN015

NFTF 19/06/2019 UTC

TAF NFTF 191707Z 1918/2018
12008KT 9999 SCT016 SCT100

NSTU 19/06/2019 UTC

TAF NSTU 191738Z 1918/2018 13011KT P6SM VCSH SCT020 SCT040 SCT100

NVVV 19/06/2019 UTC

TAF NVVV 191600Z 1918/2018 09006KT 9999 SCT020

NCRG 19/06/2019 UTC

TAF NCRG 191707Z 1918/2018
10007KT 9999 SCT017 BKN040
PROB30 TEMPO 1918/1922 5000 SHRA BKN015
PROB40 TEMPO 1922/2012 5000 SHRA BKN015

NTAA 19/06/2019 UTC

TAF NTAA 191700Z 1918/2024 06015KT 9999 FEW020 SCT040 BKN150 PROB40
TEMPO 1918/2024 06020G30KT 3000 SHRA FEW016CB SCT018 BKN040 BECMG
2004/2006 VRB05KT

NTTG

TAF not available.

NTTO

TAF not available.

NSFA 19/06/2019 UTC

TAF NSFA 191707Z 1918/2018
12007KT 9999 SCT020 SCT040

ANYN

TAF not available.

AGGH 19/06/2019 UTC

TAF AGGH 191730Z 1918/2018 20007KT 9999 FEW016

FM192300 02015KT 9999 SCT019

T 23 26 31 32 Q 1007 1009 1009 1007

AGGM 19/06/2019 UTC

TAF AGGM 191730Z 1918/2018 09010KT 9999 SCT019 SCT030

AGGN 19/06/2019 UTC

TAF AGGN 191730Z 1918/2018 14015KT 9999 SCT019 SCT030

Q 1007 1009 1009 1007

AYPY 19/06/2019 UTC

TAF AMD AYPY 192020Z 1920/2018 9999 -RADZ BKN016 BKN120
FM200100 16012KT 9999 SCT018 BKN140
INTER 1920/1924 4000 +RADZ BKN008
T 23 25 29 30
Q 1009 1010 1012 1011

AYNZ

TAF not available.

AYMD

TAF not available.

AYMH

TAF not available.

AYTA

TAF not available.

PKMJ 19/06/2019 UTC

TAF PKMJ 191739Z 1918/2018 08016KT P6SM VCSH SCT014 BKN050 BKN120
TEMPO 1918/1922 4SM -SHRA BKN015
FM192300 09016KT P6SM VCSH SCT014 SCT050 BKN120

NGTA 19/06/2019 UTC

TAF NGTA 191709Z 1918/2018
06006KT 9000 -SHRA FEW017 SCT020 BKN100
PROB40 TEMPO 1918/1924 4000 TSRA BKN010 FEW017CB
TEMPO 2000/2012 3000 TSRA BKN009 SCT018CB
PROB40 TEMPO 2012/2018 5000 TSRA FEW018CB

PTRO 19/06/2019 UTC

TAF PTRO 191739Z 1918/2018 VRB06KT P6SM VCSH SCT016 BKN120

YLHI 19/06/2019 UTC

TAF YLHI 191710Z 1918/2018
20011KT 9999 -SHRA SCT035 SCT050
FM200000 17010KT 9999 NSW FEW025 SCT035
FM200800 16006KT 9999 -SHRA SCT025 BKN035
BECMG 2013/2015 10006KT 9999 -SHRA SCT025 SCT035
RMK FM191800 MOD TURB BLW 5000FT TL192400
T 18 18 19 20 Q 1017 1019 1021 1019

YSNF 19/06/2019 UTC

TAF YSNF 191712Z 1918/2018
35008KT 9999 -SHRA FEW012 SCT025
FM200000 30010KT 9999 -SHRA SCT015 BKN025
FM200600 23010KT 9999 -SHRA FEW015 SCT030
FM201400 19008KT 9999 -SHRA SCT015 BKN025
INTER 1918/2018 4000 SHRA BKN013
RMK
T 18 19 20 20 Q 1016 1017 1017 1016

Indonesia, Timor Leste, Papua New Guinea

The availability of aerodrome forecasts from overseas locations is dependent on the regular international exchange of data. Some locations may at times be absent. If this problem persists, please advise webav@bom.gov.au

 back to top

WAAA 19/06/2019 UTC

TAF WAAA 191700Z 1918/2100 13003KT 8000 FEW019
BECMG 1922/2000 9999
BECMG 2002/2004 30008KT
BECMG 2010/2012 13004KT 8000

WAMM 19/06/2019 UTC

TAF WAMM 191700Z 1918/2024 11002KT 9000 FEW021
BECMG 1923/2001 02005KT SCT022
PROB40 TEMPO 2004/2008 5000 -RA SCT018

WAMP

TAF not available.

WAJJ 19/06/2019 UTC

TAF WAJJ 191700Z 1918/2018 00000KT 9999 FEW010
BECMG 1922/1924 12005KT
TEMPO 2006/2009 VCSH FEW012CB FEW013
BECMG 2010/2012 00000KT

WAPP 19/06/2019 UTC

TAF WAPP 191700Z 1918/2018 35005KT 9999 SCT018
BECMG 1922/1924 16010KT

WABB 19/06/2019 UTC

TAF WABB 191600Z 1918/2100 00000KT 9999 SCT018
BECMG 1922/2000 28007KT

WPDL 19/06/2019 UTC

TAF WPDL 191717Z 1918/2006
15006KT CAVOK
FM200100 03014KT CAVOK
RMK
T 24 23 28 30 Q 1012 1011 1012 1011

WATT 19/06/2019 UTC

TAF WATT 191700Z 1918/2018 11007KT 8000 FEW020
BECMG 2000/2002 10018G30KT

WIII 19/06/2019 UTC

TAF WIII 191700Z 1918/2100 20004KT 4000 HZ FEW020
BECMG 2001/2003 10010KT 8000 NSW
BECMG 2012/2014 VRB03KT 5000

WIHH 19/06/2019 UTC

TAF WIHH 191700Z 1918/2018 00000KT 4000 HZ FEW022 BECMG 2001/2003 09008KT 7000

WIMM 19/06/2019 UTC

TAF WIMM 191700Z 1918/2018 VRB06KT 7000 SCT017
TEMPO 2007/2011 3500 -TSRA FEW016CB BKN017
BECMG 2012/2014 4000 HZ SCT017

WARR 19/06/2019 UTC

TAF WARR 191700Z 1918/2018 26005KT 6000 FEW020 BECMG 1918/1920 3000 HZ BECMG 2000/2002
10010KT 9999 NSW BECMG 2015/2017 27005KT 7000

WADD 19/06/2019 UTC

TAF WADD 191700Z 1918/2018 VRB05KT 9999 SCT017
BECMG 1922/2000 12012KT

AYPY 19/06/2019 UTC

TAF AMD AYPY 192020Z 1920/2018 9999 -RADZ BKN016 BKN120
FM200100 16012KT 9999 SCT018 BKN140
INTER 1920/1924 4000 +RADZ BKN008
T 23 25 29 30
Q 1009 1010 1012 1011

AYNZ

TAF not available.

AYMH

TAF not available.

AYMD

TAF not available.

AYHK

TAF not available.

AYTK

TAF not available.

AYVN

TAF not available.

AYWK

TAF not available.

AYGA

TAF not available.

AYDU

TAF not available.

AYMS

TAF not available.

AYRB

TAF not available.

AYTB

TAF not available.

AYKI

TAF not available.

AYKT

TAF not available.

AYBK

TAF not available.

AYKM

TAF not available.

AYKY

TAF not available.

AYMO

TAF not available.

AYKV

TAF not available.

Accessing this Service

By entering this site, you acknowledge that this information is produced solely for use by the aviation industry, and you are aware that any information for the purposes of flight planning should be obtained from Airservices Australia.